Delphinus — CUFD8 — position and weather

sailwx.info

Track history (hours):
 
Tides and Currents Weather Stations Pressure Air Temp Water Temp Dewpoint Dewpoint Depression Visibility Wind Speed Wind Dir Waves Ship Positions

Delphinus

Last reported at 2017-Nov-23 01:30 UTC. Time now 2017-Nov-23 02:05 UTC.
Position N 36°59' W 008°42'.

Length 28 m; draft 4.2 m.

Type: Fishing. MMSI: 263410880.

Date/timePositionNaut miles runAvg speedWind from/ knotsBaromVisibWave heightAir tempDewpointWater temp
2017-Nov-23 01:30N 36°59' W 008°42'2 3.0
2017-Nov-23 01:00N 36°58' W 008°43'2 4.1
2017-Nov-23 00:30N 36°56' W 008°45'1 2.0
2017-Nov-23 00:00N 36°57' W 008°44'2 4.0
2017-Nov-22 23:30N 36°59' W 008°43'4 8.3
2017-Nov-22 23:00N 37°01' W 008°39'510.6
2017-Nov-22 22:30N 37°05' W 008°34'4 7.4
2017-Nov-22 22:00N 37°08' W 008°32'0 0.0
2017-Nov-22 21:30N 37°08' W 008°32'0 0.0
2017-Nov-22 21:00N 37°08' W 008°32'0 0.0
2017-Nov-22 20:30N 37°08' W 008°32'0 0.0
2017-Nov-22 20:00N 37°08' W 008°32'0 0.0
2017-Nov-22 19:30N 37°08' W 008°32'  
2017-Nov-20 00:29N 36°55' W 008°09'2 4.3
2017-Nov-19 23:57N 36°56' W 008°11'2 4.4
2017-Nov-19 23:30N 36°57' W 008°13'2 4.6
2017-Nov-19 23:00N 36°58' W 008°15'510.0
2017-Nov-19 22:28N 36°59' W 008°22'4 8.0
2017-Nov-19 22:00N 36°59' W 008°27'2 3.7
2017-Nov-19 21:30N 36°59' W 008°24'40 2.3
2017-Nov-19 03:57N 37°12' W 009°12'2 4.7
2017-Nov-19 03:30N 37°14' W 009°13'2 3.6
2017-Nov-19 03:01N 37°16' W 009°13'2 4.1
2017-Nov-19 02:30N 37°18' W 009°12'2 5.0
2017-Nov-19 02:00N 37°20' W 009°10'3 6.8
2017-Nov-19 01:30N 37°23' W 009°11'1 2.4
2017-Nov-19 01:00N 37°24' W 009°11'2 3.9
2017-Nov-19 00:30N 37°26' W 009°12'2 4.0
2017-Nov-19 00:01N 37°28' W 009°12'2 3.9
2017-Nov-18 23:30N 37°30' W 009°11'2 4.5
2017-Nov-18 23:01N 37°32' W 009°11'0 1.0
2017-Nov-18 22:31N 37°33' W 009°11'2 4.0
2017-Nov-18 22:00N 37°31' W 009°12'6 3.8
2017-Nov-18 20:20N 37°24' W 009°12'10 0.9
2017-Nov-18 09:13N 37°20' W 009°01'0 1.3
2017-Nov-18 08:55N 37°20' W 009°01'2 4.1
2017-Nov-18 08:27N 37°19' W 009°03'2 4.2
2017-Nov-18 07:57N 37°17' W 009°03'5 4.2
2017-Nov-18 06:43N 37°12' W 009°07'0 0.8
2017-Nov-18 06:30N 37°12' W 009°07'1 1.6
2017-Nov-18 06:00N 37°12' W 009°07'1510.0
2017-Nov-18 04:32N 36°59' W 008°58'1010.4
2017-Nov-18 03:35N 37°02' W 008°46'110.7
2017-Nov-18 03:30N 37°02' W 008°45'610.6
2017-Nov-18 02:58N 37°04' W 008°38'510.6
2017-Nov-18 02:30N 37°06' W 008°33'2 4.7
2017-Nov-18 02:00N 37°08' W 008°32'0 0.0
2017-Nov-18 01:30N 37°08' W 008°32'0 0.0
2017-Nov-18 01:00N 37°08' W 008°32'0 0.0
2017-Nov-18 00:30N 37°08' W 008°32'0 0.0
2017-Nov-18 00:00N 37°08' W 008°32'0 0.0
2017-Nov-17 23:30N 37°08' W 008°32'0 0.0
2017-Nov-17 23:00N 37°08' W 008°32'0 0.0
2017-Nov-17 22:30N 37°08' W 008°32'0 0.0
2017-Nov-17 22:00N 37°08' W 008°32'0 0.0
2017-Nov-17 21:30N 37°08' W 008°32'0 0.0
2017-Nov-17 21:00N 37°08' W 008°32'0 0.0
2017-Nov-17 20:30N 37°08' W 008°32'0 0.0
2017-Nov-17 20:00N 37°08' W 008°32'0 0.0
2017-Nov-17 19:30N 37°08' W 008°32'0 0.0
2017-Nov-17 19:00N 37°08' W 008°32'0 0.0
2017-Nov-17 18:30N 37°08' W 008°32'0 0.0
2017-Nov-17 18:00N 37°08' W 008°32'0 0.0
2017-Nov-17 17:30N 37°08' W 008°32'0 0.0
2017-Nov-17 17:00N 37°08' W 008°32'0 0.0
2017-Nov-17 16:30N 37°08' W 008°32'0 0.0
2017-Nov-17 16:00N 37°08' W 008°32'0 0.0
2017-Nov-17 15:30N 37°08' W 008°32'0 0.0
2017-Nov-17 14:57N 37°08' W 008°32'0 0.0
2017-Nov-17 14:30N 37°08' W 008°32'2 3.9
2017-Nov-17 13:59N 37°06' W 008°32'510.2
2017-Nov-17 13:30N 37°01' W 008°31'13 1.5
2017-Nov-17 04:42N 36°58' W 008°14'6 2.1
2017-Nov-17 01:51N 36°55' W 008°08'2 4.3
2017-Nov-17 01:28N 36°55' W 008°10'2 3.4
2017-Nov-17 01:00N 36°55' W 008°12'2 3.8
2017-Nov-17 00:30N 36°57' W 008°14'17 7.8
2017-Nov-16 22:21N 37°06' W 008°31'2 6.0
2017-Nov-16 22:00N 37°08' W 008°32'0 0.0
2017-Nov-16 21:30N 37°08' W 008°32'0 0.0
2017-Nov-16 21:01N 37°08' W 008°32'0 0.0
2017-Nov-16 20:30N 37°08' W 008°32'0 0.0
2017-Nov-16 20:00N 37°08' W 008°32'0 0.0
2017-Nov-16 19:30N 37°08' W 008°32'0 0.0
2017-Nov-16 19:00N 37°08' W 008°32'0 0.0
2017-Nov-16 18:30N 37°08' W 008°32'0 0.0
2017-Nov-16 18:00N 37°08' W 008°32'0 0.0
2017-Nov-16 17:30N 37°08' W 008°32'0 0.0
2017-Nov-16 17:00N 37°08' W 008°32'0 0.0
2017-Nov-16 16:30N 37°08' W 008°32'0 0.1
2017-Nov-16 16:00N 37°08' W 008°32'0 0.0
2017-Nov-16 15:30N 37°08' W 008°32'1 2.2
2017-Nov-16 15:00N 37°07' W 008°32'510.6
2017-Nov-16 14:30N 37°02' W 008°33'6 0.4
2017-Nov-15 23:55N 36°58' W 008°39'10 6.0
2017-Nov-15 22:12N 37°07' W 008°32'1 6.1
2017-Nov-15 21:59N 37°08' W 008°32'0 0.0
2017-Nov-15 21:30N 37°08' W 008°32'0 0.0
2017-Nov-15 20:59N 37°08' W 008°32'0 0.0
2017-Nov-15 20:30N 37°08' W 008°32'0 0.0
2017-Nov-15 20:00N 37°08' W 008°32'0 0.0
2017-Nov-15 19:30N 37°08' W 008°32'0 0.0
2017-Nov-15 19:00N 37°08' W 008°32'0 0.0
2017-Nov-15 18:30N 37°08' W 008°32'0 0.0
2017-Nov-15 18:00N 37°08' W 008°32'0 0.0
2017-Nov-15 17:30N 37°08' W 008°32'0 0.0
2017-Nov-15 17:00N 37°08' W 008°32'0 0.0
2017-Nov-15 16:30N 37°08' W 008°32'0 0.0
2017-Nov-15 16:00N 37°08' W 008°32'0 0.0
2017-Nov-15 15:30N 37°08' W 008°32'0 0.0
2017-Nov-15 14:58N 37°08' W 008°32'1 2.7
2017-Nov-15 14:25N 37°07' W 008°32'410.2
2017-Nov-15 14:00N 37°02' W 008°33'5 0.3
2017-Nov-14 22:11N 37°07' W 008°32'1 6.5
2017-Nov-14 22:00N 37°08' W 008°32'0 0.0
2017-Nov-14 21:30N 37°08' W 008°32'0 0.0
2017-Nov-14 21:00N 37°08' W 008°32'0 0.0
2017-Nov-14 20:30N 37°08' W 008°32'0 0.0
2017-Nov-14 20:00N 37°08' W 008°32'0 0.0
2017-Nov-14 19:30N 37°08' W 008°32'0 0.0
2017-Nov-14 19:00N 37°08' W 008°32'0 0.0
2017-Nov-14 18:30N 37°08' W 008°32'0 0.0
2017-Nov-14 18:00N 37°08' W 008°32'0 0.0
2017-Nov-14 17:30N 37°08' W 008°32'0 0.0
2017-Nov-14 17:00N 37°08' W 008°32'0 0.0
2017-Nov-14 16:30N 37°08' W 008°32'0 0.0
2017-Nov-14 16:00N 37°08' W 008°32'3 6.6
2017-Nov-14 15:30N 37°05' W 008°33'610.7
2017-Nov-14 14:59N 36°60' W 008°35'8 0.7
2017-Nov-14 04:13N 37°07' W 008°32'  
Track history (hours):
 
Tides and Currents Weather Stations Pressure Air Temp Water Temp Dewpoint Dewpoint Depression Visibility Wind Speed Wind Dir Waves Ship Positions

Delphinus

Last reported at 2017-Nov-23 01:30 UTC. Time now 2017-Nov-23 02:05 UTC.
Position N 36°59' W 008°42'.

Length 28 m; draft 4.2 m.

Type: Fishing. MMSI: 263410880.

Date/timePositionNaut miles runAvg speedWind from/ knotsBaromVisibWave heightAir tempDewpointWater temp
2017-Nov-23 01:30N 36°59' W 008°42'2 3.0
2017-Nov-23 01:00N 36°58' W 008°43'2 4.1
2017-Nov-23 00:30N 36°56' W 008°45'1 2.0
2017-Nov-23 00:00N 36°57' W 008°44'2 4.0
2017-Nov-22 23:30N 36°59' W 008°43'4 8.3
2017-Nov-22 23:00N 37°01' W 008°39'510.6
2017-Nov-22 22:30N 37°05' W 008°34'4 7.4
2017-Nov-22 22:00N 37°08' W 008°32'0 0.0
2017-Nov-22 21:30N 37°08' W 008°32'0 0.0
2017-Nov-22 21:00N 37°08' W 008°32'0 0.0
2017-Nov-22 20:30N 37°08' W 008°32'0 0.0
2017-Nov-22 20:00N 37°08' W 008°32'0 0.0
2017-Nov-22 19:30N 37°08' W 008°32'  
2017-Nov-20 00:29N 36°55' W 008°09'2 4.3
2017-Nov-19 23:57N 36°56' W 008°11'2 4.4
2017-Nov-19 23:30N 36°57' W 008°13'2 4.6
2017-Nov-19 23:00N 36°58' W 008°15'510.0
2017-Nov-19 22:28N 36°59' W 008°22'4 8.0
2017-Nov-19 22:00N 36°59' W 008°27'2 3.7
2017-Nov-19 21:30N 36°59' W 008°24'40 2.3
2017-Nov-19 03:57N 37°12' W 009°12'2 4.7
2017-Nov-19 03:30N 37°14' W 009°13'2 3.6
2017-Nov-19 03:01N 37°16' W 009°13'2 4.1
2017-Nov-19 02:30N 37°18' W 009°12'2 5.0
2017-Nov-19 02:00N 37°20' W 009°10'3 6.8
2017-Nov-19 01:30N 37°23' W 009°11'1 2.4
2017-Nov-19 01:00N 37°24' W 009°11'2 3.9
2017-Nov-19 00:30N 37°26' W 009°12'2 4.0
2017-Nov-19 00:01N 37°28' W 009°12'2 3.9
2017-Nov-18 23:30N 37°30' W 009°11'2 4.5
2017-Nov-18 23:01N 37°32' W 009°11'0 1.0
2017-Nov-18 22:31N 37°33' W 009°11'2 4.0
2017-Nov-18 22:00N 37°31' W 009°12'6 3.8
2017-Nov-18 20:20N 37°24' W 009°12'10 0.9
2017-Nov-18 09:13N 37°20' W 009°01'0 1.3
2017-Nov-18 08:55N 37°20' W 009°01'2 4.1
2017-Nov-18 08:27N 37°19' W 009°03'2 4.2
2017-Nov-18 07:57N 37°17' W 009°03'5 4.2
2017-Nov-18 06:43N 37°12' W 009°07'0 0.8
2017-Nov-18 06:30N 37°12' W 009°07'1 1.6
2017-Nov-18 06:00N 37°12' W 009°07'1510.0
2017-Nov-18 04:32N 36°59' W 008°58'1010.4
2017-Nov-18 03:35N 37°02' W 008°46'110.7
2017-Nov-18 03:30N 37°02' W 008°45'610.6
2017-Nov-18 02:58N 37°04' W 008°38'510.6
2017-Nov-18 02:30N 37°06' W 008°33'2 4.7
2017-Nov-18 02:00N 37°08' W 008°32'0 0.0
2017-Nov-18 01:30N 37°08' W 008°32'0 0.0
2017-Nov-18 01:00N 37°08' W 008°32'0 0.0
2017-Nov-18 00:30N 37°08' W 008°32'0 0.0
2017-Nov-18 00:00N 37°08' W 008°32'0 0.0
2017-Nov-17 23:30N 37°08' W 008°32'0 0.0
2017-Nov-17 23:00N 37°08' W 008°32'0 0.0
2017-Nov-17 22:30N 37°08' W 008°32'0 0.0
2017-Nov-17 22:00N 37°08' W 008°32'0 0.0
2017-Nov-17 21:30N 37°08' W 008°32'0 0.0
2017-Nov-17 21:00N 37°08' W 008°32'0 0.0
2017-Nov-17 20:30N 37°08' W 008°32'0 0.0
2017-Nov-17 20:00N 37°08' W 008°32'0 0.0
2017-Nov-17 19:30N 37°08' W 008°32'0 0.0
2017-Nov-17 19:00N 37°08' W 008°32'0 0.0
2017-Nov-17 18:30N 37°08' W 008°32'0 0.0
2017-Nov-17 18:00N 37°08' W 008°32'0 0.0
2017-Nov-17 17:30N 37°08' W 008°32'0 0.0
2017-Nov-17 17:00N 37°08' W 008°32'0 0.0
2017-Nov-17 16:30N 37°08' W 008°32'0 0.0
2017-Nov-17 16:00N 37°08' W 008°32'0 0.0
2017-Nov-17 15:30N 37°08' W 008°32'0 0.0
2017-Nov-17 14:57N 37°08' W 008°32'0 0.0
2017-Nov-17 14:30N 37°08' W 008°32'2 3.9
2017-Nov-17 13:59N 37°06' W 008°32'510.2
2017-Nov-17 13:30N 37°01' W 008°31'13 1.5
2017-Nov-17 04:42N 36°58' W 008°14'6 2.1
2017-Nov-17 01:51N 36°55' W 008°08'2 4.3
2017-Nov-17 01:28N 36°55' W 008°10'2 3.4
2017-Nov-17 01:00N 36°55' W 008°12'2 3.8
2017-Nov-17 00:30N 36°57' W 008°14'17 7.8
2017-Nov-16 22:21N 37°06' W 008°31'2 6.0
2017-Nov-16 22:00N 37°08' W 008°32'0 0.0
2017-Nov-16 21:30N 37°08' W 008°32'0 0.0
2017-Nov-16 21:01N 37°08' W 008°32'0 0.0
2017-Nov-16 20:30N 37°08' W 008°32'0 0.0
2017-Nov-16 20:00N 37°08' W 008°32'0 0.0
2017-Nov-16 19:30N 37°08' W 008°32'0 0.0
2017-Nov-16 19:00N 37°08' W 008°32'0 0.0
2017-Nov-16 18:30N 37°08' W 008°32'0 0.0
2017-Nov-16 18:00N 37°08' W 008°32'0 0.0
2017-Nov-16 17:30N 37°08' W 008°32'0 0.0
2017-Nov-16 17:00N 37°08' W 008°32'0 0.0
2017-Nov-16 16:30N 37°08' W 008°32'0 0.1
2017-Nov-16 16:00N 37°08' W 008°32'0 0.0
2017-Nov-16 15:30N 37°08' W 008°32'1 2.2
2017-Nov-16 15:00N 37°07' W 008°32'510.6
2017-Nov-16 14:30N 37°02' W 008°33'6 0.4
2017-Nov-15 23:55N 36°58' W 008°39'10 6.0
2017-Nov-15 22:12N 37°07' W 008°32'1 6.1
2017-Nov-15 21:59N 37°08' W 008°32'0 0.0
2017-Nov-15 21:30N 37°08' W 008°32'0 0.0
2017-Nov-15 20:59N 37°08' W 008°32'0 0.0
2017-Nov-15 20:30N 37°08' W 008°32'0 0.0
2017-Nov-15 20:00N 37°08' W 008°32'0 0.0
2017-Nov-15 19:30N 37°08' W 008°32'0 0.0
2017-Nov-15 19:00N 37°08' W 008°32'0 0.0
2017-Nov-15 18:30N 37°08' W 008°32'0 0.0
2017-Nov-15 18:00N 37°08' W 008°32'0 0.0
2017-Nov-15 17:30N 37°08' W 008°32'0 0.0
2017-Nov-15 17:00N 37°08' W 008°32'0 0.0
2017-Nov-15 16:30N 37°08' W 008°32'0 0.0
2017-Nov-15 16:00N 37°08' W 008°32'0 0.0
2017-Nov-15 15:30N 37°08' W 008°32'0 0.0
2017-Nov-15 14:58N 37°08' W 008°32'1 2.7
2017-Nov-15 14:25N 37°07' W 008°32'410.2
2017-Nov-15 14:00N 37°02' W 008°33'5 0.3
2017-Nov-14 22:11N 37°07' W 008°32'1 6.5
2017-Nov-14 22:00N 37°08' W 008°32'0 0.0
2017-Nov-14 21:30N 37°08' W 008°32'0 0.0
2017-Nov-14 21:00N 37°08' W 008°32'0 0.0
2017-Nov-14 20:30N 37°08' W 008°32'0 0.0
2017-Nov-14 20:00N 37°08' W 008°32'0 0.0
2017-Nov-14 19:30N 37°08' W 008°32'0 0.0
2017-Nov-14 19:00N 37°08' W 008°32'0 0.0
2017-Nov-14 18:30N 37°08' W 008°32'0 0.0
2017-Nov-14 18:00N 37°08' W 008°32'0 0.0
2017-Nov-14 17:30N 37°08' W 008°32'0 0.0
2017-Nov-14 17:00N 37°08' W 008°32'0 0.0
2017-Nov-14 16:30N 37°08' W 008°32'0 0.0
2017-Nov-14 16:00N 37°08' W 008°32'3 6.6
2017-Nov-14 15:30N 37°05' W 008°33'610.7
2017-Nov-14 14:59N 36°60' W 008°35'8 0.7
2017-Nov-14 04:13N 37°07' W 008°32'  

Dump ship's entire track history